createdAt,value
2022-10-14T00:01:12.509Z,10.73
2022-10-14T00:03:57.554Z,10.69
2022-10-14T00:06:42.648Z,10.65
2022-10-14T00:09:27.571Z,10.65
2022-10-14T00:12:12.898Z,10.69
2022-10-14T00:14:58.205Z,10.68
2022-10-14T00:17:43.421Z,10.71
2022-10-14T00:20:29.773Z,10.73
2022-10-14T00:23:14.684Z,10.75
2022-10-14T00:25:59.756Z,10.77
2022-10-14T00:28:45.135Z,10.76
2022-10-14T00:31:30.971Z,10.80
2022-10-14T00:34:16.336Z,10.81
2022-10-14T00:37:01.702Z,10.82
2022-10-14T00:39:47.019Z,10.86
2022-10-14T00:42:35.351Z,10.73
2022-10-14T00:45:23.125Z,10.88
2022-10-14T00:48:09.497Z,10.89
2022-10-14T00:50:57.183Z,10.96
2022-10-14T00:53:43.524Z,11.00
2022-10-14T00:56:29.887Z,10.92
2022-10-14T00:59:15.826Z,11.12
2022-10-14T01:02:01.066Z,11.04
2022-10-14T01:04:46.598Z,11.22
2022-10-14T01:07:34.442Z,11.27
2022-10-14T01:10:32.982Z,11.27
2022-10-14T01:13:29.235Z,11.28
2022-10-14T01:16:25.529Z,11.13
2022-10-14T01:19:29.829Z,11.30
2022-10-14T01:22:27.193Z,11.30
2022-10-14T01:25:25.913Z,11.27
2022-10-14T01:28:19.341Z,11.16
2022-10-14T01:31:10.730Z,11.14
2022-10-14T01:33:59.813Z,11.12
2022-10-14T01:36:52.033Z,11.00
2022-10-14T01:39:43.606Z,10.94
2022-10-14T01:42:33.939Z,10.92
2022-10-14T01:45:22.170Z,10.86
2022-10-14T01:48:08.005Z,10.76
2022-10-14T01:50:57.115Z,10.74
2022-10-14T01:53:49.252Z,10.76
2022-10-14T01:56:40.189Z,10.77
2022-10-14T01:59:26.784Z,10.79
2022-10-14T02:02:13.117Z,10.73
2022-10-14T02:04:58.119Z,10.85
2022-10-14T02:07:47.162Z,10.87
2022-10-14T02:10:58.286Z,10.91
2022-10-14T02:14:11.248Z,10.88
2022-10-14T02:17:07.157Z,10.90
2022-10-14T02:20:08.063Z,10.90
2022-10-14T02:23:00.042Z,10.68
2022-10-14T02:25:47.490Z,10.88
2022-10-14T02:28:33.807Z,10.74
2022-10-14T02:31:20.702Z,10.91
2022-10-14T02:34:11.290Z,10.92
2022-10-14T02:36:57.248Z,10.85
2022-10-14T02:39:48.673Z,10.85
2022-10-14T02:42:33.823Z,10.75
2022-10-14T02:45:19.910Z,10.78
2022-10-14T02:48:05.623Z,10.77
2022-10-14T02:50:50.866Z,10.78
2022-10-14T02:53:35.761Z,10.65
2022-10-14T02:56:20.608Z,10.79
2022-10-14T02:59:06.012Z,10.79
2022-10-14T03:01:51.370Z,10.77
2022-10-14T03:04:36.624Z,10.80
2022-10-14T03:07:21.876Z,10.76
2022-10-14T03:10:06.976Z,10.57
2022-10-14T03:12:52.253Z,10.81
2022-10-14T03:15:37.265Z,10.90
2022-10-14T03:18:22.275Z,10.90
2022-10-14T03:21:07.221Z,10.95
2022-10-14T03:23:52.987Z,10.93
2022-10-14T03:26:37.958Z,10.82
2022-10-14T03:29:22.951Z,10.87
2022-10-14T03:32:07.872Z,10.89
2022-10-14T03:34:52.718Z,10.74
2022-10-14T03:37:37.710Z,10.81
2022-10-14T03:40:22.875Z,10.91
2022-10-14T03:43:07.788Z,10.88
2022-10-14T03:45:52.687Z,10.85
2022-10-14T03:48:38.033Z,10.85
2022-10-14T03:51:23.941Z,10.75
2022-10-14T03:54:09.122Z,10.88
2022-10-14T03:56:54.377Z,10.89
2022-10-14T03:59:39.347Z,10.86
2022-10-14T04:02:24.749Z,10.82
2022-10-14T04:05:11.070Z,10.74
2022-10-14T04:07:56.124Z,10.76
2022-10-14T04:10:41.019Z,10.62
2022-10-14T04:13:25.984Z,10.71
2022-10-14T04:16:12.011Z,10.69
2022-10-14T04:18:58.749Z,10.67
2022-10-14T04:21:44.473Z,10.59
2022-10-14T04:24:30.459Z,10.50
2022-10-14T04:27:15.433Z,10.46
2022-10-14T04:30:00.625Z,10.52
2022-10-14T04:32:46.805Z,10.42
2022-10-14T04:35:31.805Z,10.58
2022-10-14T04:38:16.887Z,10.63
2022-10-14T04:41:02.074Z,10.56
2022-10-14T04:43:47.337Z,10.53
2022-10-14T04:46:32.602Z,10.63
2022-10-14T04:49:18.118Z,10.70
2022-10-14T04:52:03.213Z,10.71
2022-10-14T04:54:48.527Z,10.75
2022-10-14T04:57:33.541Z,10.75
2022-10-14T05:00:18.920Z,10.75
2022-10-14T05:03:04.408Z,10.66
2022-10-14T05:05:50.984Z,10.78
2022-10-14T05:08:36.747Z,10.76
2022-10-14T05:11:21.755Z,10.90
2022-10-14T05:14:06.989Z,10.92
2022-10-14T05:16:51.955Z,10.89
2022-10-14T05:19:36.949Z,10.88
2022-10-14T05:22:22.428Z,10.81
2022-10-14T05:25:08.395Z,10.79
2022-10-14T05:27:53.777Z,10.74
2022-10-14T05:30:38.778Z,10.69
2022-10-14T05:33:23.611Z,10.61
2022-10-14T05:36:09.422Z,10.64
2022-10-14T05:38:58.573Z,10.50
2022-10-14T05:41:43.687Z,10.61
2022-10-14T05:44:28.919Z,10.55
2022-10-14T05:47:14.701Z,10.58
2022-10-14T05:50:03.049Z,10.58
2022-10-14T05:52:48.341Z,10.62
2022-10-14T05:55:33.572Z,10.68
2022-10-14T05:58:18.838Z,10.68
2022-10-14T06:01:06.742Z,10.85
2022-10-14T06:03:52.168Z,10.80
2022-10-14T06:06:37.215Z,10.80
2022-10-14T06:09:22.249Z,10.75
2022-10-14T06:12:07.601Z,10.75
2022-10-14T06:14:52.611Z,10.59
2022-10-14T06:17:37.511Z,10.69
2022-10-14T06:20:22.828Z,10.63
2022-10-14T06:23:07.956Z,10.64
2022-10-14T06:25:53.337Z,10.59
2022-10-14T06:28:38.738Z,10.57
2022-10-14T06:31:27.433Z,10.60
2022-10-14T06:34:15.215Z,10.59
2022-10-14T06:37:02.407Z,10.61
2022-10-14T06:39:47.762Z,10.60
2022-10-14T06:42:34.435Z,10.63
2022-10-14T06:45:19.832Z,10.44
2022-10-14T06:48:05.317Z,10.62
2022-10-14T06:50:50.464Z,10.47
2022-10-14T06:53:35.355Z,10.60
2022-10-14T06:56:20.661Z,10.60
2022-10-14T06:59:05.882Z,10.58
2022-10-14T07:01:51.226Z,10.59
2022-10-14T07:04:36.858Z,10.60
2022-10-14T07:07:22.052Z,10.62
2022-10-14T07:10:07.428Z,10.64
2022-10-14T07:12:56.268Z,10.42
2022-10-14T07:15:41.260Z,10.68
2022-10-14T07:18:26.537Z,10.59
2022-10-14T07:21:11.801Z,10.66
2022-10-14T07:23:56.738Z,10.74
2022-10-14T07:26:41.918Z,10.80
2022-10-14T07:29:27.119Z,10.89
2022-10-14T07:32:12.327Z,10.79
2022-10-14T07:34:57.296Z,10.96
2022-10-14T07:37:42.790Z,10.99
2022-10-14T07:40:27.635Z,11.06
2022-10-14T07:43:12.480Z,11.05
2022-10-14T07:46:02.668Z,11.06
2022-10-14T07:48:57.976Z,11.06
2022-10-14T07:51:43.791Z,11.01
2022-10-14T07:54:31.014Z,11.09
2022-10-14T07:57:16.739Z,11.02
2022-10-14T08:00:01.886Z,11.21
2022-10-14T08:02:46.903Z,11.30
2022-10-14T08:05:39.259Z,11.34
2022-10-14T08:08:24.260Z,11.33
2022-10-14T08:11:17.163Z,11.47
2022-10-14T08:14:02.231Z,11.58
2022-10-14T08:16:47.610Z,11.53
2022-10-14T08:19:32.729Z,11.73
2022-10-14T08:22:17.698Z,11.71
2022-10-14T08:25:03.106Z,11.95
2022-10-14T08:27:54.261Z,11.95
2022-10-14T08:30:39.649Z,12.13
2022-10-14T08:33:24.927Z,12.33
2022-10-14T08:36:10.409Z,12.42
2022-10-14T08:38:55.681Z,12.44
2022-10-14T08:42:09.817Z,12.52
2022-10-14T08:45:08.102Z,12.54
2022-10-14T08:47:57.139Z,12.62
2022-10-14T08:50:57.066Z,12.72
2022-10-14T08:53:50.229Z,12.82
2022-10-14T08:56:37.879Z,12.94
2022-10-14T08:59:24.087Z,13.12
2022-10-14T09:02:37.313Z,13.25
2022-10-14T09:05:25.128Z,13.33
2022-10-14T09:08:16.061Z,13.35
2022-10-14T09:11:01.857Z,13.34
2022-10-14T09:13:53.140Z,13.37
2022-10-14T09:16:40.360Z,13.50
2022-10-14T09:19:32.866Z,13.59
2022-10-14T09:22:17.970Z,13.71
2022-10-14T09:25:03.361Z,13.76
2022-10-14T09:27:49.694Z,13.77
2022-10-14T09:30:38.951Z,13.75
2022-10-14T09:33:27.358Z,13.76
2022-10-14T09:36:17.470Z,13.74
2022-10-14T09:39:05.490Z,13.79
2022-10-14T09:41:54.262Z,13.71
2022-10-14T09:44:39.545Z,13.93
2022-10-14T09:47:25.180Z,14.08
2022-10-14T09:50:19.512Z,14.19
2022-10-14T09:53:16.710Z,14.34
2022-10-14T09:56:04.995Z,14.93
2022-10-14T09:58:57.258Z,14.90
2022-10-14T10:01:50.117Z,14.83
2022-10-14T10:04:41.907Z,14.83
2022-10-14T10:07:33.332Z,14.82
2022-10-14T10:10:22.518Z,14.92
2022-10-14T10:13:36.076Z,15.00
2022-10-14T10:16:25.529Z,15.14
2022-10-14T10:19:32.406Z,15.67
2022-10-14T10:22:22.889Z,15.63
2022-10-14T10:25:08.278Z,15.78
2022-10-14T10:27:54.943Z,15.88
2022-10-14T10:31:29.990Z,16.06
2022-10-14T10:34:39.835Z,16.13
2022-10-14T10:37:26.805Z,16.26
2022-10-14T10:40:18.418Z,16.21
2022-10-14T10:43:51.564Z,16.13
2022-10-14T10:46:52.650Z,16.13
2022-10-14T10:49:59.286Z,16.11
2022-10-14T10:53:15.918Z,16.16
2022-10-14T10:56:28.592Z,16.20
2022-10-14T10:59:30.331Z,16.21
2022-10-14T11:02:59.472Z,16.15
2022-10-14T11:05:44.489Z,16.01
2022-10-14T11:09:09.565Z,16.28
2022-10-14T11:12:15.594Z,16.39
2022-10-14T11:15:23.712Z,16.43
2022-10-14T11:18:24.972Z,16.61
2022-10-14T11:21:14.912Z,16.70
2022-10-14T11:24:09.260Z,16.66
2022-10-14T11:26:59.872Z,16.81
2022-10-14T11:29:50.425Z,16.68
2022-10-14T11:32:58.406Z,16.81
2022-10-14T11:36:08.669Z,16.78
2022-10-14T11:39:24.874Z,16.64
2022-10-14T11:42:13.786Z,16.52
2022-10-14T11:45:12.933Z,16.52
2022-10-14T11:48:22.541Z,16.60
2022-10-14T11:51:35.555Z,16.59
2022-10-14T11:54:28.584Z,16.41
2022-10-14T11:57:38.301Z,16.57
2022-10-14T12:00:45.449Z,16.38
2022-10-14T12:04:04.121Z,16.41
2022-10-14T12:06:57.380Z,16.34
2022-10-14T12:09:48.423Z,16.29
2022-10-14T12:12:34.433Z,16.26
2022-10-14T12:15:22.870Z,16.28
2022-10-14T12:18:11.524Z,16.38
2022-10-14T12:21:15.524Z,16.44
2022-10-14T12:24:21.952Z,16.46
2022-10-14T12:27:11.124Z,16.53
2022-10-14T12:29:58.547Z,16.75
2022-10-14T12:33:03.683Z,16.76
2022-10-14T12:36:00.002Z,16.60
2022-10-14T12:39:17.248Z,16.47
2022-10-14T12:42:05.392Z,16.38
2022-10-14T12:44:56.058Z,16.41
2022-10-14T12:47:41.715Z,16.54
2022-10-14T12:50:42.443Z,16.56
2022-10-14T12:53:32.359Z,16.54
2022-10-14T12:56:33.724Z,16.61
2022-10-14T12:59:39.836Z,16.54
2022-10-14T13:02:32.368Z,16.68
2022-10-14T13:05:30.186Z,16.63
2022-10-14T13:08:15.402Z,16.74
2022-10-14T13:11:02.306Z,16.73
2022-10-14T13:13:51.525Z,16.75
2022-10-14T13:16:36.886Z,16.78
2022-10-14T13:19:34.612Z,16.84
2022-10-14T13:22:28.463Z,16.89
2022-10-14T13:25:20.133Z,16.99
2022-10-14T13:28:20.401Z,16.86
2022-10-14T13:31:15.687Z,16.90
2022-10-14T13:34:20.318Z,16.86
2022-10-14T13:37:34.931Z,16.89
2022-10-14T13:40:43.354Z,16.81
2022-10-14T13:43:42.738Z,16.85
2022-10-14T13:46:36.650Z,16.77
2022-10-14T13:49:33.552Z,16.75
2022-10-14T13:52:24.322Z,16.78
2022-10-14T13:55:19.711Z,16.83
2022-10-14T13:58:14.295Z,16.84
2022-10-14T14:01:05.377Z,16.91
2022-10-14T14:03:53.502Z,16.95
2022-10-14T14:07:03.194Z,16.88
2022-10-14T14:09:54.355Z,16.88
2022-10-14T14:12:43.029Z,17.37
2022-10-14T14:15:29.376Z,17.50
2022-10-14T14:18:56.163Z,16.98
2022-10-14T14:21:41.789Z,16.66
2022-10-14T14:24:29.381Z,16.53
2022-10-14T14:27:17.949Z,16.53
2022-10-14T14:30:08.350Z,16.41
2022-10-14T14:32:55.873Z,16.37
2022-10-14T14:35:52.217Z,16.32
2022-10-14T14:38:37.771Z,16.29
2022-10-14T14:41:26.567Z,16.19
2022-10-14T14:44:25.084Z,16.08
2022-10-14T14:47:11.671Z,15.98
2022-10-14T14:50:25.019Z,15.93
2022-10-14T14:53:10.847Z,15.81
2022-10-14T14:55:56.105Z,15.76
2022-10-14T14:58:52.770Z,15.76
2022-10-14T15:01:42.905Z,15.71
2022-10-14T15:04:32.150Z,15.54
2022-10-14T15:07:21.850Z,15.66
2022-10-14T15:10:08.524Z,15.76
2022-10-14T15:12:56.168Z,16.07
2022-10-14T15:15:53.528Z,16.11
2022-10-14T15:18:43.527Z,16.03
2022-10-14T15:21:28.876Z,15.77
2022-10-14T15:24:20.675Z,15.75
2022-10-14T15:27:35.336Z,15.79
2022-10-14T15:30:23.846Z,15.82
2022-10-14T15:33:19.674Z,15.77
2022-10-14T15:36:05.003Z,15.71
2022-10-14T15:38:56.200Z,15.66
2022-10-14T15:41:41.842Z,15.65
2022-10-14T15:44:27.084Z,15.57
2022-10-14T15:47:21.613Z,15.68
2022-10-14T15:50:12.938Z,15.62
2022-10-14T15:52:58.124Z,15.49
2022-10-14T15:55:44.104Z,15.47
2022-10-14T15:58:29.235Z,15.53
2022-10-14T16:01:23.169Z,15.51
2022-10-14T16:04:19.630Z,15.82
2022-10-14T16:07:04.645Z,15.62
2022-10-14T16:09:49.826Z,15.50
2022-10-14T16:12:35.081Z,15.43
2022-10-14T16:15:28.143Z,15.44
2022-10-14T16:18:13.438Z,15.46
2022-10-14T16:20:58.281Z,15.43
2022-10-14T16:23:43.803Z,15.40
2022-10-14T16:26:29.379Z,15.41
2022-10-14T16:29:15.328Z,15.49
2022-10-14T16:32:00.573Z,15.63
2022-10-14T16:34:45.840Z,15.55
2022-10-14T16:37:31.066Z,15.40
2022-10-14T16:40:16.266Z,15.35
2022-10-14T16:43:01.566Z,15.28
2022-10-14T16:45:46.713Z,15.09
2022-10-14T16:48:35.675Z,15.18
2022-10-14T16:54:05.611Z,15.10
2022-10-14T16:56:53.811Z,15.04
2022-10-14T16:59:39.063Z,15.00
2022-10-14T17:02:31.733Z,14.94
2022-10-14T17:05:17.599Z,14.87
2022-10-14T17:08:02.850Z,14.79
2022-10-14T17:10:47.839Z,14.87
2022-10-14T17:13:32.917Z,14.84
2022-10-14T17:16:18.342Z,14.76
2022-10-14T17:19:03.392Z,14.68
2022-10-14T17:21:49.045Z,14.79
2022-10-14T17:24:34.069Z,14.74
2022-10-14T17:27:24.154Z,14.59
2022-10-14T17:30:09.823Z,14.76
2022-10-14T17:32:54.988Z,14.66
2022-10-14T17:35:40.185Z,14.77
2022-10-14T17:38:27.626Z,14.74
2022-10-14T17:41:14.162Z,14.75
2022-10-14T17:44:01.357Z,14.73
2022-10-14T17:46:46.604Z,14.61
2022-10-14T17:49:31.727Z,14.67
2022-10-14T17:52:17.118Z,14.60
2022-10-14T17:55:02.122Z,14.50
2022-10-14T17:57:47.494Z,14.53
2022-10-14T18:00:32.335Z,14.47
2022-10-14T18:03:18.433Z,14.47
2022-10-14T18:06:13.787Z,14.43
2022-10-14T18:09:01.687Z,14.43
2022-10-14T18:12:07.670Z,14.51
2022-10-14T18:14:53.373Z,14.51
2022-10-14T18:17:39.336Z,14.49
2022-10-14T18:20:24.515Z,14.48
2022-10-14T18:23:11.340Z,14.47
2022-10-14T18:26:14.142Z,14.52
2022-10-14T18:28:59.489Z,14.42
2022-10-14T18:31:44.615Z,14.47
2022-10-14T18:34:29.945Z,14.51
2022-10-14T18:37:15.191Z,14.48
2022-10-14T18:40:00.478Z,14.53
2022-10-14T18:42:46.274Z,14.52
2022-10-14T18:45:34.659Z,14.51
2022-10-14T18:48:22.510Z,14.53
2022-10-14T18:51:08.803Z,14.54
2022-10-14T18:53:57.322Z,14.49
2022-10-14T18:56:44.359Z,14.49
2022-10-14T18:59:29.461Z,14.49
2022-10-14T19:02:14.536Z,14.48
2022-10-14T19:04:59.857Z,14.42
2022-10-14T19:07:44.997Z,14.31
2022-10-14T19:10:30.724Z,14.33
2022-10-14T19:13:15.956Z,14.29
2022-10-14T19:16:01.849Z,14.22
2022-10-14T19:18:48.016Z,14.29
2022-10-14T19:21:33.536Z,14.27
2022-10-14T19:24:18.709Z,14.24
2022-10-14T19:27:03.988Z,14.24
2022-10-14T19:29:49.207Z,14.25
2022-10-14T19:32:34.284Z,14.31
2022-10-14T19:35:21.552Z,14.28
2022-10-14T19:38:06.550Z,14.27
2022-10-14T19:40:51.930Z,14.26
2022-10-14T19:43:37.078Z,14.24
2022-10-14T19:46:23.812Z,14.09
2022-10-14T19:49:11.648Z,14.23
2022-10-14T19:51:56.587Z,14.20
2022-10-14T19:54:42.886Z,14.16
2022-10-14T19:57:27.901Z,14.16
2022-10-14T20:00:13.755Z,13.95
2022-10-14T20:02:59.136Z,14.10
2022-10-14T20:05:44.229Z,14.11
2022-10-14T20:08:29.830Z,14.05
2022-10-14T20:11:18.538Z,14.02
2022-10-14T20:14:04.454Z,13.93
2022-10-14T20:16:53.560Z,13.82
2022-10-14T20:19:41.185Z,13.80
2022-10-14T20:22:26.388Z,13.89
2022-10-14T20:25:11.787Z,13.90
2022-10-14T20:27:57.195Z,13.88
2022-10-14T20:30:42.882Z,13.87
2022-10-14T20:33:31.490Z,13.79
2022-10-14T20:36:19.573Z,13.79
2022-10-14T20:39:04.775Z,13.77
2022-10-14T20:41:50.319Z,13.65
2022-10-14T20:44:35.347Z,13.73
2022-10-14T20:47:20.486Z,13.68
2022-10-14T20:50:06.398Z,13.64
2022-10-14T20:52:51.603Z,13.65
2022-10-14T20:55:36.501Z,13.41
2022-10-14T20:58:23.026Z,13.56
2022-10-14T21:01:11.460Z,13.51
2022-10-14T21:03:59.763Z,13.42
2022-10-14T21:06:45.103Z,13.42
2022-10-14T21:09:30.051Z,13.41
2022-10-14T21:12:15.744Z,13.37
2022-10-14T21:15:00.667Z,13.33
2022-10-14T21:17:49.532Z,13.23
2022-10-14T21:20:35.127Z,13.15
2022-10-14T21:23:20.240Z,13.10
2022-10-14T21:26:05.633Z,13.01
2022-10-14T21:28:51.182Z,12.87
2022-10-14T21:31:36.820Z,12.94
2022-10-14T21:34:24.766Z,12.88
2022-10-14T21:37:09.632Z,12.68
2022-10-14T21:39:54.633Z,12.64
2022-10-14T21:42:39.602Z,12.70
2022-10-14T21:45:24.912Z,12.59
2022-10-14T21:48:10.264Z,12.67
2022-10-14T21:51:11.160Z,12.53
2022-10-14T21:53:57.416Z,12.46
2022-10-14T21:56:42.731Z,12.39
2022-10-14T21:59:27.921Z,12.38
2022-10-14T22:02:12.993Z,12.29
2022-10-14T22:04:57.913Z,12.25
2022-10-14T22:07:43.097Z,12.16
2022-10-14T22:10:43.716Z,12.07
2022-10-14T22:13:29.897Z,12.02
2022-10-14T22:16:16.942Z,12.01
2022-10-14T22:19:04.564Z,11.93
2022-10-14T22:21:50.147Z,11.96
2022-10-14T22:24:36.186Z,11.81
2022-10-14T22:27:21.385Z,11.88
2022-10-14T22:30:08.192Z,11.91
2022-10-14T22:32:53.481Z,11.82
2022-10-14T22:35:38.732Z,11.77
2022-10-14T22:38:23.570Z,11.67
2022-10-14T22:41:10.306Z,11.68
2022-10-14T22:43:57.116Z,11.56
2022-10-14T22:46:41.963Z,11.49
2022-10-14T22:49:26.811Z,11.45
2022-10-14T22:52:11.808Z,11.37
2022-10-14T22:54:56.925Z,11.27
2022-10-14T22:57:42.191Z,11.25
2022-10-14T23:00:27.167Z,11.23
2022-10-14T23:03:12.485Z,11.15
2022-10-14T23:06:00.773Z,11.09
2022-10-14T23:08:46.840Z,11.03
2022-10-14T23:11:32.019Z,11.00
2022-10-14T23:14:17.015Z,10.96
2022-10-14T23:17:02.683Z,10.89
2022-10-14T23:19:47.637Z,10.95
2022-10-14T23:22:34.425Z,10.78
2022-10-14T23:25:22.920Z,10.85
2022-10-14T23:28:08.398Z,10.86
2022-10-14T23:30:53.329Z,10.85
2022-10-14T23:33:38.951Z,10.74
2022-10-14T23:36:24.152Z,10.73
2022-10-14T23:39:09.452Z,10.68
2022-10-14T23:41:54.665Z,10.56
2022-10-14T23:44:39.844Z,10.65
2022-10-14T23:47:25.225Z,10.67
2022-10-14T23:50:10.520Z,10.77
2022-10-14T23:52:55.595Z,10.76
2022-10-14T23:55:42.061Z,10.73
2022-10-14T23:58:30.944Z,10.76
